Zakirovskiy Airport

Jump to: basic info | weather | comments

Related pages: nearby airports | nearby navaids

Basic information (top)

Location: lon 43.448002, lat 77.049599, elev 2,038 ft / 621 m msl
Status: small_airport

Weather (top)

Current conditions for Almaty Airport 6nm (11km) S (rec'd 2014/07/31 07:00Z):

UAAA 310700Z 07002MPS 9999 FEW050 SCT100 26/M00 Q1016 R88/65D NOSIG

Airport forecast for Almaty Airport 6nm (11km) S (rec'd 2014/07/31 06:18Z):

TAF TAF UAAA 310500Z 3106/0106 04005MPS 9999 SCT050CB BKN100 TX28/3109Z TN15/0100Z PROB40 
      TEMPO 3108/3114 TS 
      BECMG 3114/3115 16005MPS

Latest comments (top)

No comments yet for Zakirovskiy Airport

More... (top)

See also NOTAMs and nearby airports and navaids, or visit the Zakirovskiy Airport page at the main OurAirports website..